createdAt,value
2022-12-24T00:00:31.100Z,21.82
2022-12-24T00:02:57.834Z,21.78
2022-12-24T00:05:24.367Z,21.78
2022-12-24T00:07:50.782Z,21.76
2022-12-24T00:10:17.193Z,21.82
2022-12-24T00:12:43.662Z,21.89
2022-12-24T00:15:10.317Z,21.95
2022-12-24T00:17:36.774Z,21.75
2022-12-24T00:20:04.532Z,21.82
2022-12-24T00:22:31.020Z,21.76
2022-12-24T00:24:57.502Z,21.83
2022-12-24T00:27:23.964Z,21.92
2022-12-24T00:29:50.472Z,21.89
2022-12-24T00:32:17.002Z,21.83
2022-12-24T00:34:43.430Z,21.87
2022-12-24T00:37:09.864Z,21.90
2022-12-24T00:39:36.274Z,21.91
2022-12-24T00:42:02.830Z,21.82
2022-12-24T00:44:29.263Z,21.96
2022-12-24T00:46:55.700Z,21.82
2022-12-24T00:49:22.224Z,21.84
2022-12-24T00:51:48.719Z,21.77
2022-12-24T00:54:15.155Z,21.85
2022-12-24T00:56:41.666Z,21.80
2022-12-24T00:59:08.074Z,21.87
2022-12-24T01:01:35.805Z,21.75
2022-12-24T01:04:21.136Z,21.90
2022-12-24T01:06:47.568Z,21.90
2022-12-24T01:09:14.003Z,21.95
2022-12-24T01:11:40.600Z,21.89
2022-12-24T01:14:06.988Z,22.02
2022-12-24T01:16:33.545Z,22.01
2022-12-24T01:19:00.023Z,22.00
2022-12-24T01:21:26.556Z,21.97
2022-12-24T01:23:52.995Z,22.07
2022-12-24T01:26:19.427Z,22.08
2022-12-24T01:28:45.845Z,22.08
2022-12-24T01:31:19.587Z,22.05
2022-12-24T01:33:46.248Z,22.11
2022-12-24T01:36:12.956Z,22.18
2022-12-24T01:38:39.771Z,22.17
2022-12-24T01:41:24.998Z,22.15
2022-12-24T01:43:51.548Z,22.07
2022-12-24T01:46:17.976Z,21.99
2022-12-24T01:48:45.520Z,22.05
2022-12-24T01:51:15.875Z,22.10
2022-12-24T01:53:42.916Z,22.03
2022-12-24T01:56:09.432Z,22.03
2022-12-24T01:58:35.942Z,22.13
2022-12-24T02:01:02.486Z,22.18
2022-12-24T02:03:29.001Z,22.25
2022-12-24T02:05:57.017Z,22.28
2022-12-24T02:08:23.549Z,22.20
2022-12-24T02:10:50.092Z,22.21
2022-12-24T02:13:17.683Z,22.16
2022-12-24T02:15:51.037Z,22.24
2022-12-24T02:18:22.767Z,22.25
2022-12-24T02:21:24.734Z,22.35
2022-12-24T02:24:06.081Z,22.28
2022-12-24T02:26:51.052Z,22.22
2022-12-24T02:29:36.893Z,22.26
2022-12-24T02:32:10.602Z,22.21
2022-12-24T02:34:37.071Z,22.27
2022-12-24T02:37:15.161Z,22.19
2022-12-24T02:39:47.018Z,22.26
2022-12-24T02:42:13.538Z,22.21
2022-12-24T02:44:44.992Z,22.27
2022-12-24T02:47:11.654Z,22.18
2022-12-24T02:49:38.201Z,22.16
2022-12-24T02:52:04.761Z,22.10
2022-12-24T02:54:31.185Z,22.08
2022-12-24T02:56:57.656Z,22.11
2022-12-24T02:59:33.711Z,22.11
2022-12-24T03:02:00.221Z,22.20
2022-12-24T03:04:40.641Z,22.31
2022-12-24T03:07:09.516Z,22.68
2022-12-24T03:09:39.011Z,22.94
2022-12-24T03:12:10.969Z,23.18
2022-12-24T03:14:37.426Z,23.47
2022-12-24T03:17:04.136Z,23.69
2022-12-24T03:19:30.667Z,23.92
2022-12-24T03:21:57.253Z,24.17
2022-12-24T03:24:23.890Z,24.43
2022-12-24T03:26:50.447Z,24.57
2022-12-24T03:29:16.865Z,24.76
2022-12-24T03:31:44.386Z,25.07
2022-12-24T03:34:11.178Z,25.32
2022-12-24T03:36:40.080Z,25.60
2022-12-24T03:39:06.765Z,25.85
2022-12-24T03:41:33.316Z,26.20
2022-12-24T03:43:59.714Z,26.45
2022-12-24T03:46:26.234Z,26.68
2022-12-24T03:48:52.708Z,26.76
2022-12-24T03:51:23.228Z,26.40
2022-12-24T03:53:49.638Z,26.12
2022-12-24T03:56:18.360Z,25.63
2022-12-24T03:58:44.759Z,24.96
2022-12-24T04:01:11.271Z,23.92
2022-12-24T04:03:37.768Z,22.31
2022-12-24T04:06:05.148Z,20.66
2022-12-24T04:08:31.555Z,19.41
2022-12-24T04:10:58.049Z,18.44
2022-12-24T04:13:24.467Z,17.78
2022-12-24T04:16:00.676Z,17.58
2022-12-24T04:18:27.478Z,17.51
2022-12-24T04:20:53.952Z,17.36
2022-12-24T04:23:20.471Z,17.37
2022-12-24T04:25:47.078Z,17.35
2022-12-24T04:28:13.792Z,17.21
2022-12-24T04:30:40.459Z,17.01
2022-12-24T04:33:07.018Z,16.81
2022-12-24T04:35:33.469Z,16.66
2022-12-24T04:37:59.949Z,16.58
2022-12-24T04:40:26.372Z,16.46
2022-12-24T04:42:52.810Z,16.41
2022-12-24T04:45:19.313Z,16.30
2022-12-24T04:47:45.708Z,16.29
2022-12-24T04:50:12.089Z,16.23
2022-12-24T04:52:38.570Z,16.13
2022-12-24T04:55:05.158Z,16.22
2022-12-24T04:57:32.629Z,16.19
2022-12-24T04:59:59.060Z,16.17
2022-12-24T05:02:25.682Z,16.13
2022-12-24T05:04:52.371Z,16.05
2022-12-24T05:07:18.803Z,16.03
2022-12-24T05:09:45.195Z,16.00
2022-12-24T05:12:13.729Z,16.01
2022-12-24T05:14:40.464Z,16.00
2022-12-24T05:17:06.935Z,16.03
2022-12-24T05:19:33.427Z,16.04
2022-12-24T05:22:18.668Z,16.02
2022-12-24T05:25:03.472Z,16.02
2022-12-24T05:27:29.902Z,16.05
2022-12-24T05:29:56.403Z,16.04
2022-12-24T05:32:22.854Z,16.03
2022-12-24T05:34:49.298Z,16.04
2022-12-24T05:37:15.718Z,16.05
2022-12-24T05:39:42.101Z,16.05
2022-12-24T05:42:08.506Z,16.07
2022-12-24T05:44:34.882Z,16.10
2022-12-24T05:47:01.372Z,16.12
2022-12-24T05:49:28.898Z,16.11
2022-12-24T05:51:55.613Z,16.12
2022-12-24T05:54:22.035Z,16.16
2022-12-24T05:56:48.472Z,16.12
2022-12-24T05:59:14.895Z,16.12
2022-12-24T06:01:45.622Z,16.12
2022-12-24T06:04:12.228Z,16.14
2022-12-24T06:06:38.693Z,16.14
2022-12-24T06:09:05.225Z,16.14
2022-12-24T06:11:31.659Z,16.19
2022-12-24T06:13:58.082Z,16.17
2022-12-24T06:16:24.607Z,16.19
2022-12-24T06:18:51.173Z,16.16
2022-12-24T06:21:17.642Z,16.26
2022-12-24T06:23:44.252Z,16.19
2022-12-24T06:26:11.782Z,16.17
2022-12-24T06:28:38.269Z,16.16
2022-12-24T06:31:05.382Z,16.21
2022-12-24T06:33:32.381Z,16.22
2022-12-24T06:36:01.149Z,16.17
2022-12-24T06:38:29.494Z,16.19
2022-12-24T06:40:56.014Z,16.16
2022-12-24T06:43:22.511Z,16.19
2022-12-24T06:45:48.984Z,16.20
2022-12-24T06:48:15.616Z,16.21
2022-12-24T06:50:42.131Z,16.17
2022-12-24T06:53:08.546Z,16.18
2022-12-24T06:55:35.014Z,16.20
2022-12-24T06:58:01.416Z,16.18
2022-12-24T07:00:30.400Z,16.18
2022-12-24T07:02:56.839Z,16.19
2022-12-24T07:05:23.326Z,16.17
2022-12-24T07:07:49.714Z,16.18
2022-12-24T07:10:16.446Z,16.19
2022-12-24T07:12:42.899Z,16.17
2022-12-24T07:15:09.648Z,16.17
2022-12-24T07:17:36.185Z,16.19
2022-12-24T07:20:02.940Z,16.17
2022-12-24T07:22:29.362Z,16.21
2022-12-24T07:24:55.782Z,16.21
2022-12-24T07:27:22.170Z,16.21
2022-12-24T07:29:48.636Z,16.21
2022-12-24T07:32:15.086Z,16.21
2022-12-24T07:34:41.629Z,16.20
2022-12-24T07:37:08.044Z,16.24
2022-12-24T07:39:34.481Z,16.21
2022-12-24T07:42:01.199Z,16.20
2022-12-24T07:44:27.626Z,16.23
2022-12-24T07:46:54.188Z,16.24
2022-12-24T07:49:20.751Z,16.25
2022-12-24T07:51:47.225Z,16.27
2022-12-24T07:54:13.704Z,16.26
2022-12-24T07:56:40.112Z,16.27
2022-12-24T07:59:06.541Z,16.27
2022-12-24T08:01:33.165Z,16.29
2022-12-24T08:03:59.664Z,16.31
2022-12-24T08:06:26.212Z,16.34
2022-12-24T08:08:52.641Z,16.42
2022-12-24T08:11:19.043Z,16.41
2022-12-24T08:13:45.428Z,16.42
2022-12-24T08:16:12.000Z,16.47
2022-12-24T08:18:38.468Z,16.48
2022-12-24T08:21:07.275Z,16.51
2022-12-24T08:23:33.682Z,16.58
2022-12-24T08:26:00.109Z,16.55
2022-12-24T08:28:26.593Z,16.58
2022-12-24T08:30:53.062Z,16.60
2022-12-24T08:33:19.507Z,16.61
2022-12-24T08:35:49.617Z,16.64
2022-12-24T08:38:16.704Z,16.64
2022-12-24T08:40:43.590Z,16.67
2022-12-24T08:43:10.057Z,16.68
2022-12-24T08:45:40.993Z,16.74
2022-12-24T08:48:08.232Z,16.71
2022-12-24T08:50:34.859Z,16.72
2022-12-24T08:53:01.264Z,16.72
2022-12-24T08:55:27.690Z,16.74
2022-12-24T08:57:56.115Z,16.75
2022-12-24T09:00:22.677Z,16.78
2022-12-24T09:02:49.238Z,17.04
2022-12-24T09:05:15.776Z,17.50
2022-12-24T09:07:42.240Z,18.02
2022-12-24T09:10:10.943Z,18.57
2022-12-24T09:12:37.473Z,19.21
2022-12-24T09:15:04.542Z,19.95
2022-12-24T09:17:31.330Z,20.69
2022-12-24T09:19:57.727Z,21.29
2022-12-24T09:22:24.124Z,21.83
2022-12-24T09:24:50.568Z,22.36
2022-12-24T09:27:17.010Z,22.69
2022-12-24T09:29:43.427Z,22.95
2022-12-24T09:32:10.002Z,23.19
2022-12-24T09:34:36.877Z,23.34
2022-12-24T09:37:05.676Z,23.61
2022-12-24T09:39:32.115Z,23.63
2022-12-24T09:42:18.788Z,23.61
2022-12-24T09:45:06.635Z,23.50
2022-12-24T09:47:43.540Z,23.60
2022-12-24T09:50:28.891Z,23.47
2022-12-24T09:52:55.405Z,23.42
2022-12-24T09:55:28.033Z,23.39
2022-12-24T09:57:54.736Z,23.43
2022-12-24T10:00:26.033Z,23.49
2022-12-24T10:02:52.673Z,23.56
2022-12-24T10:05:23.013Z,23.45
2022-12-24T10:07:53.838Z,23.45
2022-12-24T10:10:23.378Z,23.46
2022-12-24T10:12:50.193Z,23.49
2022-12-24T10:15:22.902Z,23.38
2022-12-24T10:18:01.009Z,23.34
2022-12-24T10:20:36.560Z,23.30
2022-12-24T10:23:21.909Z,23.35
2022-12-24T10:25:54.032Z,23.32
2022-12-24T10:28:38.912Z,23.36
2022-12-24T10:31:05.823Z,23.27
2022-12-24T10:33:33.579Z,23.18
2022-12-24T10:36:00.403Z,23.13
2022-12-24T10:38:26.906Z,23.16
2022-12-24T10:40:53.985Z,23.22
2022-12-24T10:43:21.373Z,23.22
2022-12-24T10:45:49.431Z,23.23
2022-12-24T10:48:22.167Z,23.27
2022-12-24T10:50:59.571Z,23.28
2022-12-24T10:53:45.681Z,23.35
2022-12-24T10:56:13.526Z,23.27
2022-12-24T10:58:44.054Z,23.28
2022-12-24T11:01:10.539Z,23.26
2022-12-24T11:03:37.666Z,23.17
2022-12-24T11:06:10.257Z,23.18
2022-12-24T11:08:37.371Z,23.17
2022-12-24T11:11:24.100Z,23.09
2022-12-24T11:13:50.497Z,23.11
2022-12-24T11:16:16.946Z,23.20
2022-12-24T11:19:02.564Z,23.21
2022-12-24T11:21:30.837Z,23.17
2022-12-24T11:24:03.031Z,23.19
2022-12-24T11:26:29.780Z,23.26
2022-12-24T11:29:06.543Z,23.26
2022-12-24T11:31:35.823Z,23.33
2022-12-24T11:34:03.482Z,23.35
2022-12-24T11:36:29.960Z,23.37
2022-12-24T11:38:57.108Z,23.38
2022-12-24T11:41:23.882Z,23.41
2022-12-24T11:43:51.115Z,23.47
2022-12-24T11:46:21.785Z,23.48
2022-12-24T11:48:48.275Z,23.57
2022-12-24T11:51:22.882Z,23.66
2022-12-24T11:53:49.344Z,23.69
2022-12-24T11:56:18.493Z,23.79
2022-12-24T11:58:52.592Z,23.89
2022-12-24T12:01:20.670Z,23.95
2022-12-24T12:03:48.499Z,24.01
2022-12-24T12:06:26.970Z,24.10
2022-12-24T12:08:55.257Z,24.17
2022-12-24T12:11:21.820Z,24.20
2022-12-24T12:13:48.243Z,24.23
2022-12-24T12:16:17.609Z,24.28
2022-12-24T12:18:47.018Z,24.30
2022-12-24T12:21:20.872Z,24.30
2022-12-24T12:23:49.120Z,24.27
2022-12-24T12:26:18.398Z,24.35
2022-12-24T12:28:46.239Z,24.39
2022-12-24T12:31:16.662Z,24.44
2022-12-24T12:33:44.423Z,24.43
2022-12-24T12:36:10.936Z,24.48
2022-12-24T12:38:37.336Z,24.50
2022-12-24T12:41:14.009Z,24.49
2022-12-24T12:43:40.424Z,24.60
2022-12-24T12:46:20.065Z,24.75
2022-12-24T12:48:56.926Z,24.81
2022-12-24T12:51:45.233Z,24.99
2022-12-24T12:54:24.096Z,25.16
2022-12-24T12:56:52.172Z,25.30
2022-12-24T12:59:28.895Z,25.52
2022-12-24T13:01:55.457Z,25.71
2022-12-24T13:04:28.468Z,25.76
2022-12-24T13:07:02.966Z,25.92
2022-12-24T13:09:48.055Z,26.10
2022-12-24T13:12:23.691Z,26.22
2022-12-24T13:14:58.365Z,26.40
2022-12-24T13:17:32.550Z,26.54
2022-12-24T13:20:10.623Z,26.67
2022-12-24T13:22:37.276Z,26.81
2022-12-24T13:25:03.764Z,27.03
2022-12-24T13:27:33.431Z,27.14
2022-12-24T13:30:07.191Z,27.28
2022-12-24T13:32:38.726Z,27.41
2022-12-24T13:35:25.160Z,27.56
2022-12-24T13:37:51.916Z,27.62
2022-12-24T13:40:25.233Z,27.75
2022-12-24T13:43:06.733Z,27.87
2022-12-24T13:45:33.336Z,28.02
2022-12-24T13:48:03.045Z,28.17
2022-12-24T13:50:29.518Z,28.23
2022-12-24T13:52:55.937Z,28.31
2022-12-24T13:55:22.484Z,28.35
2022-12-24T13:58:04.473Z,28.46
2022-12-24T14:00:31.209Z,28.56
2022-12-24T14:03:05.796Z,28.66
2022-12-24T14:05:32.313Z,28.72
2022-12-24T14:07:58.771Z,28.78
2022-12-24T14:10:32.090Z,28.82
2022-12-24T14:12:58.508Z,28.91
2022-12-24T14:15:43.815Z,28.96
2022-12-24T14:18:10.447Z,29.01
2022-12-24T14:20:36.943Z,29.08
2022-12-24T14:23:05.011Z,29.11
2022-12-24T14:25:31.566Z,29.19
2022-12-24T14:28:17.384Z,29.28
2022-12-24T14:30:43.822Z,29.29
2022-12-24T14:33:30.572Z,29.32
2022-12-24T14:35:57.013Z,29.38
2022-12-24T14:38:23.493Z,29.50
2022-12-24T14:41:00.992Z,29.55
2022-12-24T14:43:27.388Z,29.61
2022-12-24T14:46:05.338Z,29.68
2022-12-24T14:48:42.826Z,29.77
2022-12-24T14:51:21.776Z,29.83
2022-12-24T14:54:11.517Z,29.87
2022-12-24T14:56:37.937Z,29.98
2022-12-24T14:59:17.395Z,30.03
2022-12-24T15:01:44.009Z,30.10
2022-12-24T15:04:10.601Z,30.22
2022-12-24T15:06:38.044Z,30.26
2022-12-24T15:09:04.452Z,30.36
2022-12-24T15:11:30.870Z,30.40
2022-12-24T15:13:57.632Z,30.40
2022-12-24T15:16:25.247Z,30.48
2022-12-24T15:18:58.898Z,30.55
2022-12-24T15:21:25.372Z,30.68
2022-12-24T15:23:51.945Z,30.68
2022-12-24T15:26:22.957Z,30.75
2022-12-24T15:28:49.642Z,30.80
2022-12-24T15:31:16.999Z,30.79
2022-12-24T15:33:50.424Z,30.82
2022-12-24T15:36:18.168Z,30.91
2022-12-24T15:38:44.920Z,30.92
2022-12-24T15:41:21.495Z,30.99
2022-12-24T15:43:48.373Z,31.04
2022-12-24T15:46:18.813Z,31.15
2022-12-24T15:48:45.302Z,31.22
2022-12-24T15:51:12.987Z,31.23
2022-12-24T15:53:43.671Z,31.24
2022-12-24T15:56:11.475Z,31.22
2022-12-24T15:58:41.820Z,31.34
2022-12-24T16:01:15.311Z,31.42
2022-12-24T16:04:02.229Z,31.37
2022-12-24T16:06:28.923Z,31.49
2022-12-24T16:08:56.472Z,31.58
2022-12-24T16:11:23.914Z,31.59
2022-12-24T16:13:50.604Z,31.52
2022-12-24T16:16:20.889Z,31.58
2022-12-24T16:18:59.829Z,31.59
2022-12-24T16:21:29.193Z,31.64
2022-12-24T16:23:56.468Z,31.70
2022-12-24T16:26:22.912Z,31.67
2022-12-24T16:28:49.361Z,31.69
2022-12-24T16:31:19.737Z,31.74
2022-12-24T16:33:46.406Z,31.87
2022-12-24T16:36:13.438Z,31.90
2022-12-24T16:38:58.288Z,31.90
2022-12-24T16:41:24.723Z,31.83
2022-12-24T16:43:51.176Z,31.98
2022-12-24T16:46:17.661Z,32.00
2022-12-24T16:48:47.801Z,32.04
2022-12-24T16:51:14.253Z,31.96
2022-12-24T16:53:41.281Z,31.97
2022-12-24T16:56:07.754Z,32.08
2022-12-24T16:58:34.965Z,32.19
2022-12-24T17:01:06.092Z,32.10
2022-12-24T17:03:32.770Z,32.13
2022-12-24T17:05:59.900Z,32.07
2022-12-24T17:08:26.328Z,32.14
2022-12-24T17:10:52.766Z,32.14
2022-12-24T17:13:19.303Z,32.19
2022-12-24T17:15:45.772Z,32.18
2022-12-24T17:18:12.208Z,32.17
2022-12-24T17:20:38.628Z,32.22
2022-12-24T17:23:05.072Z,32.21
2022-12-24T17:25:31.496Z,32.28
2022-12-24T17:27:57.891Z,32.27
2022-12-24T17:30:24.451Z,32.37
2022-12-24T17:32:50.883Z,32.28
2022-12-24T17:35:17.430Z,32.35
2022-12-24T17:37:43.846Z,32.33
2022-12-24T17:40:10.561Z,32.39
2022-12-24T17:42:36.988Z,32.41
2022-12-24T17:45:03.926Z,32.42
2022-12-24T17:47:30.588Z,32.39
2022-12-24T17:49:57.006Z,32.39
2022-12-24T17:52:23.516Z,32.45
2022-12-24T17:54:49.969Z,32.49
2022-12-24T17:57:16.485Z,32.43
2022-12-24T17:59:42.931Z,32.51
2022-12-24T18:02:10.090Z,32.52
2022-12-24T18:04:36.527Z,32.55
2022-12-24T18:07:05.336Z,32.63
2022-12-24T18:09:31.721Z,32.60
2022-12-24T18:11:58.116Z,32.68
2022-12-24T18:14:24.592Z,32.55
2022-12-24T18:16:51.096Z,32.69
2022-12-24T18:19:18.851Z,32.53
2022-12-24T18:21:45.270Z,32.73
2022-12-24T18:24:12.420Z,32.70
2022-12-24T18:26:39.032Z,32.72
2022-12-24T18:29:05.779Z,32.68
2022-12-24T18:31:33.639Z,32.71
2022-12-24T18:34:00.628Z,32.73
2022-12-24T18:36:27.094Z,32.80
2022-12-24T18:38:53.678Z,32.68
2022-12-24T18:41:21.265Z,32.80
2022-12-24T18:43:48.264Z,32.99
2022-12-24T18:46:18.838Z,32.84
2022-12-24T18:48:45.403Z,32.80
2022-12-24T18:51:12.049Z,32.85
2022-12-24T18:53:38.477Z,32.90
2022-12-24T18:56:05.807Z,32.78
2022-12-24T18:58:32.206Z,32.88
2022-12-24T19:00:58.677Z,32.82
2022-12-24T19:03:25.393Z,32.85
2022-12-24T19:05:51.838Z,32.93
2022-12-24T19:08:55.638Z,32.86
2022-12-24T19:11:09.328Z,32.97
2022-12-24T19:13:35.769Z,33.05
2022-12-24T19:16:06.016Z,33.04
2022-12-24T19:18:35.324Z,33.02
2022-12-24T19:21:05.815Z,32.98
2022-12-24T19:23:32.554Z,33.18
2022-12-24T19:25:59.075Z,33.07
2022-12-24T19:28:26.140Z,33.22
2022-12-24T19:30:52.715Z,33.10
2022-12-24T19:33:19.123Z,33.08
2022-12-24T19:35:48.654Z,33.16
2022-12-24T19:38:15.072Z,33.20
2022-12-24T19:40:41.533Z,33.16
2022-12-24T19:43:07.956Z,33.22
2022-12-24T19:45:34.393Z,33.13
2022-12-24T19:48:00.846Z,33.17
2022-12-24T19:50:27.252Z,33.20
2022-12-24T19:52:53.659Z,33.28
2022-12-24T19:55:20.068Z,33.36
2022-12-24T19:57:46.456Z,33.21
2022-12-24T20:00:13.067Z,33.27
2022-12-24T20:02:39.699Z,33.28
2022-12-24T20:05:06.457Z,33.27
2022-12-24T20:07:32.914Z,33.31
2022-12-24T20:09:59.392Z,33.21
2022-12-24T20:12:25.811Z,33.24
2022-12-24T20:14:54.777Z,33.22
2022-12-24T20:17:21.223Z,33.51
2022-12-24T20:19:50.427Z,33.32
2022-12-24T20:22:16.843Z,33.29
2022-12-24T20:24:43.295Z,33.36
2022-12-24T20:27:09.828Z,33.42
2022-12-24T20:29:36.274Z,33.34
2022-12-24T20:32:02.759Z,33.43
2022-12-24T20:34:29.246Z,33.31
2022-12-24T20:36:55.677Z,33.52
2022-12-24T20:39:22.310Z,33.37
2022-12-24T20:41:48.717Z,33.41
2022-12-24T20:44:15.122Z,33.43
2022-12-24T20:46:41.604Z,33.59
2022-12-24T20:49:10.003Z,33.37
2022-12-24T20:51:36.617Z,33.60
2022-12-24T20:54:03.061Z,33.48
2022-12-24T20:56:30.821Z,33.54
2022-12-24T20:58:58.451Z,33.42
2022-12-24T21:01:25.769Z,33.41
2022-12-24T21:03:53.566Z,33.41
2022-12-24T21:06:20.212Z,33.47
2022-12-24T21:08:48.086Z,33.46
2022-12-24T21:11:33.314Z,33.47
2022-12-24T21:14:01.730Z,33.48
2022-12-24T21:16:28.934Z,33.58
2022-12-24T21:18:55.441Z,33.47
2022-12-24T21:21:22.048Z,33.47
2022-12-24T21:23:48.477Z,33.51
2022-12-24T21:26:15.024Z,33.60
2022-12-24T21:28:42.671Z,33.61
2022-12-24T21:31:12.526Z,33.73
2022-12-24T21:33:39.130Z,33.47
2022-12-24T21:36:05.869Z,33.73
2022-12-24T21:38:32.506Z,33.69
2022-12-24T21:40:59.700Z,33.58
2022-12-24T21:43:26.108Z,33.66
2022-12-24T21:45:53.850Z,33.64
2022-12-24T21:48:39.540Z,33.91
2022-12-24T21:51:06.233Z,33.70
2022-12-24T21:53:51.292Z,33.81
2022-12-24T21:56:17.865Z,33.73
2022-12-24T21:58:44.344Z,33.73
2022-12-24T22:01:10.924Z,33.67
2022-12-24T22:03:40.607Z,33.70
2022-12-24T22:06:07.308Z,33.81
2022-12-24T22:08:52.206Z,33.69
2022-12-24T22:11:37.185Z,33.80
2022-12-24T22:14:05.767Z,33.77
2022-12-24T22:16:32.263Z,33.75
2022-12-24T22:18:58.691Z,33.82
2022-12-24T22:21:25.128Z,33.73
2022-12-24T22:23:51.535Z,33.68
2022-12-24T22:26:18.064Z,33.77
2022-12-24T22:28:44.516Z,33.67
2022-12-24T22:31:20.781Z,33.73
2022-12-24T22:33:47.224Z,33.78
2022-12-24T22:36:13.809Z,33.81
2022-12-24T22:38:42.410Z,33.62
2022-12-24T22:41:08.913Z,33.81
2022-12-24T22:43:35.591Z,33.70
2022-12-24T22:46:04.972Z,33.66
2022-12-24T22:48:31.419Z,33.70
2022-12-24T22:50:57.929Z,33.83
2022-12-24T22:53:24.359Z,33.71
2022-12-24T22:55:57.202Z,33.83
2022-12-24T22:58:23.835Z,33.73
2022-12-24T23:00:51.033Z,33.75
2022-12-24T23:03:17.524Z,33.81
2022-12-24T23:05:44.245Z,33.89
2022-12-24T23:08:10.737Z,33.72
2022-12-24T23:10:37.374Z,33.79
2022-12-24T23:13:22.684Z,33.78
2022-12-24T23:15:49.115Z,33.79
2022-12-24T23:18:15.544Z,33.73
2022-12-24T23:20:46.952Z,33.89
2022-12-24T23:23:14.068Z,33.81
2022-12-24T23:25:43.225Z,33.81
2022-12-24T23:28:09.673Z,33.90
2022-12-24T23:30:36.113Z,33.84
2022-12-24T23:33:02.562Z,33.81
2022-12-24T23:35:28.952Z,33.19
2022-12-24T23:37:55.397Z,32.54
2022-12-24T23:40:21.812Z,31.42
2022-12-24T23:42:48.295Z,29.50
2022-12-24T23:45:14.877Z,27.40
2022-12-24T23:47:41.387Z,26.00
2022-12-24T23:50:08.150Z,25.35
2022-12-24T23:52:34.578Z,24.85
2022-12-24T23:55:01.052Z,24.40
2022-12-24T23:57:27.474Z,24.10
2022-12-24T23:59:53.941Z,23.91
